Time;durP1;ratioP1;P1;durP2;ratioP2;P2;SDS_P1;SDS_P2;PMS_P1;PMS_P2;Temp;Humidity;BMP_temperature;BMP_pressure;BME280_temperature;BME280_humidity;BME280_pressure;Samples;Min_cycle;Max_cycle;Signal;HPM_P1;HPM_P2
2024/01/11 00:00:50;;;;;;;0.75;0.00;;;;;;;0.29;74.96;101911.31;5040576;28;20045;-76
2024/01/11 00:03:18;;;;;;;0.47;0.08;;;;;;;0.29;74.70;101899.31;5039475;28;20077;-75
2024/01/11 00:05:45;;;;;;;2.10;0.10;;;;;;;0.27;75.03;101893.22;5039494;28;20533;-75
2024/01/11 00:08:13;;;;;;;1.95;0.10;;;;;;;0.27;74.87;101889.78;5039462;28;20041;-75
2024/01/11 00:10:40;;;;;;;6.47;0.15;;;;;;;0.30;74.45;101890.75;5041428;28;20594;-75
2024/01/11 00:13:06;;;;;;;0.20;0.00;;;;;;;0.31;74.34;101889.09;5036944;28;20807;-76
2024/01/11 00:15:33;;;;;;;1.05;0.00;;;;;;;0.30;74.61;101902.75;5040880;28;20077;-75
2024/01/11 00:18:00;;;;;;;0.90;0.10;;;;;;;0.33;74.30;101910.59;5035951;28;20077;-75
2024/01/11 00:20:29;;;;;;;0.68;0.10;;;;;;;0.32;74.47;101902.00;5038181;28;20091;-75
2024/01/11 00:22:56;;;;;;;0.00;0.00;;;;;;;0.32;74.45;101896.84;5041053;28;20522;-75
2024/01/11 00:25:23;;;;;;;0.43;0.00;;;;;;;0.32;74.35;101896.84;5036385;28;20788;-75
2024/01/11 00:27:50;;;;;;;0.15;0.05;;;;;;;0.34;74.79;101900.38;5038894;28;20087;-76
2024/01/11 00:30:17;;;;;;;0.90;0.25;;;;;;;0.34;74.58;101908.09;5042947;28;20045;-75
2024/01/11 00:32:44;;;;;;;0.70;0.05;;;;;;;0.33;74.51;101897.72;5042159;28;20081;-75
2024/01/11 00:35:11;;;;;;;1.55;0.10;;;;;;;0.34;74.67;101900.38;5045551;28;20072;-75
2024/01/11 00:37:40;;;;;;;3.70;0.10;;;;;;;0.33;74.46;101902.88;5044194;28;20128;-75
2024/01/11 00:40:08;;;;;;;0.90;0.20;;;;;;;0.35;74.89;101899.53;5044201;28;20076;-76
2024/01/11 00:42:35;;;;;;;1.75;0.00;;;;;;;0.36;74.62;101910.69;5045260;28;20470;-75
2024/01/11 00:45:02;;;;;;;0.50;0.05;;;;;;;0.34;74.93;101892.63;5046353;28;20037;-75
2024/01/11 00:47:30;;;;;;;0.43;0.00;;;;;;;0.35;74.64;101890.94;5044076;28;20076;-75
2024/01/11 00:49:56;;;;;;;0.28;0.08;;;;;;;0.37;74.93;101894.47;5042004;28;20072;-75
2024/01/11 00:52:23;;;;;;;2.22;0.10;;;;;;;0.37;74.53;101891.88;5046147;28;20072;-75
2024/01/11 00:54:52;;;;;;;0.20;0.10;;;;;;;0.33;74.88;101890.00;5054350;28;20076;-83
2024/01/11 00:57:19;;;;;;;0.10;0.00;;;;;;;0.39;75.00;101903.09;5050830;28;20713;-84
2024/01/11 00:59:46;;;;;;;0.90;0.03;;;;;;;0.37;74.89;101907.31;5051915;28;20045;-83
2024/01/11 01:02:13;;;;;;;0.45;0.10;;;;;;;0.41;75.17;101916.03;5049452;28;20069;-83
2024/01/11 01:04:40;;;;;;;0.40;0.05;;;;;;;0.41;75.13;101911.75;5047087;28;20080;-75
2024/01/11 01:07:07;;;;;;;0.08;0.00;;;;;;;0.42;74.89;101903.19;5043131;28;20083;-76
2024/01/11 01:09:34;;;;;;;0.20;0.00;;;;;;;0.40;74.78;101904.88;5043713;28;20111;-76
2024/01/11 01:12:03;;;;;;;0.85;0.05;;;;;;;0.42;75.19;101902.31;5042890;28;20129;-76
2024/01/11 01:14:29;;;;;;;1.33;0.00;;;;;;;0.40;74.73;101912.59;5040480;28;20771;-76
2024/01/11 01:16:57;;;;;;;0.10;0.03;;;;;;;0.37;74.97;101899.59;5041674;28;20080;-75
2024/01/11 01:19:24;;;;;;;0.08;0.03;;;;;;;0.42;74.96;101903.19;5039945;28;20644;-76
2024/01/11 01:21:51;;;;;;;0.85;0.00;;;;;;;0.44;74.87;101911.88;5040914;28;20575;-76
2024/01/11 01:24:18;;;;;;;0.20;0.00;;;;;;;0.44;74.88;101906.72;5040537;28;20080;-76
2024/01/11 01:26:45;;;;;;;0.03;0.00;;;;;;;0.42;75.44;101903.19;5042219;28;20072;-76
2024/01/11 01:29:13;;;;;;;0.15;0.03;;;;;;;0.44;75.29;101906.72;5039050;28;20073;-76
2024/01/11 01:31:40;;;;;;;0.15;0.05;;;;;;;0.46;75.23;101917.97;5035497;28;20081;-75
2024/01/11 01:34:08;;;;;;;0.10;0.00;;;;;;;0.47;74.69;101900.81;5041790;28;20128;-76
2024/01/11 01:36:35;;;;;;;0.88;0.00;;;;;;;0.48;74.96;101903.44;5041069;28;20103;-76
2024/01/11 01:39:01;;;;;;;0.63;0.00;;;;;;;0.47;75.48;101904.25;5045749;28;20494;-76
2024/01/11 01:41:28;;;;;;;0.25;0.10;;;;;;;0.47;75.49;101914.56;5042844;28;20111;-75
2024/01/11 01:43:55;;;;;;;0.85;0.05;;;;;;;0.47;74.71;101918.84;5041806;28;20171;-76
2024/01/11 01:46:24;;;;;;;2.17;0.00;;;;;;;0.47;75.32;101929.13;5043162;28;20126;-75
2024/01/11 01:48:52;;;;;;;0.57;0.52;;;;;;;0.47;75.04;101926.56;5037062;28;20076;-76
2024/01/11 01:51:20;;;;;;;0.10;0.00;;;;;;;0.47;74.87;101927.44;5037606;28;20087;-76
2024/01/11 01:53:48;;;;;;;0.40;0.00;;;;;;;0.47;74.96;101931.69;5039067;28;20053;-76
2024/01/11 01:56:15;;;;;;;0.10;0.00;;;;;;;0.47;75.23;101930.00;5045027;28;20122;-76
2024/01/11 01:58:44;;;;;;;0.05;0.00;;;;;;;0.47;75.45;101927.44;5037653;28;20488;-76
2024/01/11 02:01:11;;;;;;;0.25;0.10;;;;;;;0.47;74.87;101921.41;5044101;28;20048;-76
2024/01/11 02:03:41;;;;;;;0.30;0.00;;;;;;;0.43;74.68;101920.41;5045079;28;20045;-75
2024/01/11 02:06:08;;;;;;;0.45;0.00;;;;;;;0.43;75.46;101920.41;5044455;28;20435;-75
2024/01/11 02:08:36;;;;;;;1.02;0.00;;;;;;;0.41;75.34;101909.19;5042965;28;20053;-76
2024/01/11 02:11:04;;;;;;;1.27;0.00;;;;;;;0.45;75.56;101908.50;5037393;28;20077;-75
2024/01/11 02:13:32;;;;;;;0.17;0.00;;;;;;;0.44;75.05;101917.00;5041949;28;20080;-75
2024/01/11 02:15:59;;;;;;;1.13;0.05;;;;;;;0.44;75.33;101922.16;5042903;28;20084;-75
2024/01/11 02:18:26;;;;;;;0.15;0.00;;;;;;;0.44;75.53;101918.72;5044240;28;20075;-76
2024/01/11 02:20:56;;;;;;;0.00;0.00;;;;;;;0.44;74.88;101913.56;5041387;28;20073;-75
2024/01/11 02:23:27;;;;;;;0.95;0.00;;;;;;;0.44;74.82;101922.16;5040680;28;20084;-77
2024/01/11 02:25:55;;;;;;;2.75;0.00;;;;;;;0.44;75.10;101926.44;5042791;28;20624;-75
2024/01/11 02:28:23;;;;;;;0.10;0.00;;;;;;;0.44;75.18;101926.44;5040842;28;20044;-76
2024/01/11 02:30:50;;;;;;;0.85;0.10;;;;;;;0.43;74.98;101930.72;5041195;28;20295;-76
2024/01/11 02:33:18;;;;;;;1.55;0.00;;;;;;;0.44;74.86;101937.63;5039752;28;20419;-76
2024/01/11 02:35:45;;;;;;;0.00;0.00;;;;;;;0.43;75.65;101930.72;5038643;28;20061;-76
2024/01/11 02:38:12;;;;;;;0.45;0.00;;;;;;;0.43;75.57;101930.72;5042554;28;20073;-76
2024/01/11 02:40:41;;;;;;;0.63;0.05;;;;;;;0.37;75.12;101914.16;5047829;28;20068;-75
2024/01/11 02:43:13;;;;;;;0.10;0.00;;;;;;;0.40;75.04;101920.31;5045188;28;20148;-76
2024/01/11 02:45:40;;;;;;;4.45;0.00;;;;;;;0.39;75.50;101913.38;5041610;28;20106;-75
2024/01/11 02:48:07;;;;;;;1.95;0.08;;;;;;;0.40;75.37;101915.16;5039338;28;20045;-75
2024/01/11 02:50:34;;;;;;;0.10;0.00;;;;;;;0.41;75.06;101916.91;5042899;28;20533;-77
2024/01/11 02:53:01;;;;;;;1.45;0.00;;;;;;;0.42;75.08;101922.94;5036842;28;20124;-75
2024/01/11 02:55:28;;;;;;;0.20;0.00;;;;;;;0.40;75.38;101920.31;5043007;28;20107;-74
2024/01/11 02:57:55;;;;;;;0.10;0.00;;;;;;;0.41;75.18;101921.19;5040982;28;20049;-75
2024/01/11 03:00:23;;;;;;;1.08;0.00;;;;;;;0.41;75.18;101928.91;5040510;28;20084;-76
2024/01/11 03:02:50;;;;;;;0.10;0.00;;;;;;;0.40;75.87;101916.88;5040310;28;20082;-75
2024/01/11 03:05:17;;;;;;;0.88;0.00;;;;;;;0.40;75.75;101920.31;5039449;28;20126;-76
2024/01/11 03:07:44;;;;;;;1.92;0.00;;;;;;;0.40;75.22;101919.44;5041928;28;20132;-76
2024/01/11 03:10:11;;;;;;;0.60;0.00;;;;;;;0.35;75.48;101917.56;5041371;28;20073;-76
2024/01/11 03:12:38;;;;;;;0.82;0.00;;;;;;;0.39;75.60;101927.97;5040899;28;20059;-75
2024/01/11 03:15:06;;;;;;;0.10;0.00;;;;;;;0.37;75.85;101927.91;5043186;28;20115;-76
2024/01/11 03:17:35;;;;;;;2.42;0.00;;;;;;;0.37;75.55;101930.50;5038871;28;20076;-77
2024/01/11 03:20:04;;;;;;;0.98;0.00;;;;;;;0.36;75.65;101926.16;5036230;28;20148;-76
2024/01/11 03:22:31;;;;;;;0.43;0.00;;;;;;;0.40;75.18;101932.31;5040081;28;20060;-76
2024/01/11 03:24:58;;;;;;;0.10;0.00;;;;;;;0.38;75.75;101927.09;5039398;28;20084;-76
2024/01/11 03:27:25;;;;;;;0.08;0.00;;;;;;;0.40;75.59;101930.59;5044271;28;20049;-76
2024/01/11 03:29:52;;;;;;;0.30;0.00;;;;;;;0.35;76.17;101916.69;5037487;28;20495;-76
2024/01/11 03:32:19;;;;;;;2.45;0.47;;;;;;;0.41;75.69;101932.34;5037409;28;20050;-75
2024/01/11 03:34:47;;;;;;;0.00;0.00;;;;;;;0.40;76.16;101928.03;5043025;28;20095;-74
2024/01/11 03:37:14;;;;;;;0.28;0.00;;;;;;;0.42;76.24;101934.09;5041514;28;20103;-74
2024/01/11 03:39:41;;;;;;;0.40;0.00;;;;;;;0.44;75.73;101927.31;5041956;28;20077;-74
2024/01/11 03:42:08;;;;;;;0.68;0.00;;;;;;;0.46;76.07;101927.38;5039717;28;20126;-74
2024/01/11 03:44:37;;;;;;;0.25;0.00;;;;;;;0.47;76.43;101924.84;5038841;28;20542;-75
2024/01/11 03:47:05;;;;;;;2.65;0.20;;;;;;;0.49;76.58;101925.78;5042495;28;20518;-74
2024/01/11 03:49:32;;;;;;;0.03;0.00;;;;;;;0.50;76.45;101924.97;5037130;28;20129;-77
2024/01/11 03:52:00;;;;;;;0.00;0.00;;;;;;;0.52;76.31;101922.47;5040433;28;20554;-74
2024/01/11 03:54:27;;;;;;;0.43;0.00;;;;;;;0.53;76.35;101930.22;5038910;28;20045;-74
2024/01/11 03:56:54;;;;;;;0.85;0.00;;;;;;;0.56;76.67;101929.47;5040516;28;20644;-74
2024/01/11 03:59:21;;;;;;;0.00;0.00;;;;;;;0.55;76.52;101926.00;5036811;28;20087;-74
2024/01/11 04:01:48;;;;;;;1.35;0.00;;;;;;;0.61;76.27;101921.91;5043780;28;20145;-74
2024/01/11 04:04:14;;;;;;;0.25;0.00;;;;;;;0.61;76.36;101922.78;5038270;28;20088;-74
2024/01/11 04:06:41;;;;;;;0.22;0.00;;;;;;;0.65;76.36;101926.34;5040414;28;20076;-74
2024/01/11 04:09:10;;;;;;;0.70;0.00;;;;;;;0.65;76.56;101921.19;5042911;28;20048;-74
2024/01/11 04:11:37;;;;;;;0.00;0.00;;;;;;;0.70;76.67;101927.41;5040604;28;20527;-74
2024/01/11 04:14:04;;;;;;;0.13;0.00;;;;;;;0.69;76.37;101923.06;5042992;28;20555;-74
2024/01/11 04:16:31;;;;;;;0.00;0.00;;;;;;;0.71;76.57;101929.16;5041290;28;20080;-74
2024/01/11 04:18:58;;;;;;;0.10;0.00;;;;;;;0.74;76.44;101924.13;5043033;28;20072;-74
2024/01/11 04:21:28;;;;;;;0.25;0.00;;;;;;;0.74;76.64;101926.69;5043362;28;20566;-75
2024/01/11 04:23:55;;;;;;;0.22;0.00;;;;;;;0.75;76.40;101934.47;5042998;28;20118;-72
2024/01/11 04:26:24;;;;;;;0.00;0.00;;;;;;;0.76;76.69;101945.66;5042367;28;20107;-72
2024/01/11 04:28:52;;;;;;;0.00;0.00;;;;;;;0.80;76.37;101960.41;5042169;28;20049;-72
2024/01/11 04:31:19;;;;;;;0.10;0.00;;;;;;;0.77;76.77;101968.03;5041756;28;20124;-72
2024/01/11 04:33:47;;;;;;;0.00;0.00;;;;;;;0.81;76.53;101964.72;5042836;28;20557;-75
2024/01/11 04:36:14;;;;;;;1.38;0.00;;;;;;;0.87;76.80;101995.00;5041808;28;20052;-75
2024/01/11 04:38:41;;;;;;;0.00;0.00;;;;;;;0.89;76.87;101989.06;5040345;28;20140;-74
2024/01/11 04:41:12;;;;;;;0.00;0.00;;;;;;;0.91;77.23;101991.72;5044640;28;20041;-75
2024/01/11 04:43:41;;;;;;;0.57;0.00;;;;;;;0.95;76.72;102007.34;5044672;28;20124;-74
2024/01/11 04:46:14;;;;;;;0.05;0.00;;;;;;;0.98;77.18;102017.75;5043465;28;20073;-75
2024/01/11 04:48:41;;;;;;;0.45;0.00;;;;;;;1.01;76.79;102019.56;5040489;28;20488;-74
2024/01/11 04:51:08;;;;;;;0.30;0.00;;;;;;;1.00;76.98;102017.81;5044514;28;20075;-74
2024/01/11 04:53:38;;;;;;;0.00;0.00;;;;;;;1.05;77.82;102026.59;5045211;28;20079;-75
2024/01/11 04:56:05;;;;;;;0.00;0.00;;;;;;;1.05;76.98;102036.00;5043566;28;20071;-75
2024/01/11 04:58:32;;;;;;;0.10;0.00;;;;;;;1.12;77.07;102043.16;5044150;28;20077;-75
2024/01/11 05:01:01;;;;;;;0.00;0.00;;;;;;;1.12;77.63;102053.47;5042522;28;20057;-75
2024/01/11 05:03:29;;;;;;;0.22;0.00;;;;;;;1.15;77.45;102061.31;5048752;28;20531;-74
2024/01/11 05:05:56;;;;;;;0.65;0.00;;;;;;;1.17;77.59;102060.56;5041180;28;20512;-75
2024/01/11 05:08:23;;;;;;;0.00;0.00;;;;;;;1.19;77.62;102058.00;5043617;28;20107;-74
2024/01/11 05:10:50;;;;;;;0.47;0.00;;;;;;;1.21;77.39;102049.50;5044172;28;20051;-75
2024/01/11 05:13:18;;;;;;;0.10;0.00;;;;;;;1.24;77.59;102051.31;5040754;28;20084;-75
2024/01/11 05:15:45;;;;;;;0.00;0.00;;;;;;;1.24;77.49;102048.75;5041979;28;20099;-74
2024/01/11 05:18:14;;;;;;;0.40;0.00;;;;;;;1.28;77.54;102058.38;5041743;28;20080;-76
2024/01/11 05:20:41;;;;;;;0.20;0.00;;;;;;;1.30;77.51;102053.25;5040521;28;20088;-75
2024/01/11 05:23:08;;;;;;;0.00;0.00;;;;;;;1.30;77.39;102054.13;5040906;28;20499;-75
2024/01/11 05:25:35;;;;;;;0.00;0.00;;;;;;;1.28;77.44;102049.72;5041963;28;20474;-75
2024/01/11 05:28:04;;;;;;;0.00;0.00;;;;;;;1.33;77.64;102072.28;5042781;28;20118;-75
2024/01/11 05:30:31;;;;;;;0.10;0.00;;;;;;;1.34;77.42;102079.22;5041344;28;20053;-77
2024/01/11 05:32:58;;;;;;;0.15;0.00;;;;;;;1.35;77.20;102078.38;5042670;28;20049;-76
2024/01/11 05:35:27;;;;;;;0.00;0.00;;;;;;;1.36;76.96;102075.00;5041144;28;20522;-76
2024/01/11 05:37:55;;;;;;;3.85;0.52;;;;;;;1.37;77.51;102087.06;5043451;28;20554;-76
2024/01/11 05:40:23;;;;;;;0.00;0.00;;;;;;;1.35;77.47;102085.25;5044340;28;20052;-76
2024/01/11 05:42:50;;;;;;;0.17;0.00;;;;;;;1.38;77.15;102093.94;5043669;28;20072;-75
2024/01/11 05:45:17;;;;;;;2.15;0.00;;;;;;;1.40;77.24;102094.03;5047832;28;20041;-82
2024/01/11 05:47:44;;;;;;;0.03;0.00;;;;;;;1.39;77.04;102099.97;5048818;28;20102;-81
2024/01/11 05:50:12;;;;;;;0.63;0.00;;;;;;;1.39;77.14;102116.38;5045719;28;20059;-80
2024/01/11 05:52:40;;;;;;;0.00;0.00;;;;;;;1.41;77.26;102114.69;5046281;28;20484;-81
2024/01/11 05:55:08;;;;;;;0.55;0.00;;;;;;;1.41;76.88;102109.53;5051917;28;20053;-81
2024/01/11 05:57:35;;;;;;;0.57;0.00;;;;;;;1.43;76.95;102113.06;5050363;28;20081;-81
2024/01/11 06:00:02;;;;;;;0.08;0.00;;;;;;;1.42;77.19;102118.16;5047739;28;20053;-81
2024/01/11 06:02:29;;;;;;;0.20;0.00;;;;;;;1.42;76.74;102125.88;5051533;28;20068;-82
2024/01/11 06:04:55;;;;;;;0.35;0.00;;;;;;;1.42;76.51;102120.72;5050923;28;20080;-82
2024/01/11 06:07:23;;;;;;;0.30;0.00;;;;;;;1.42;76.83;102128.47;5048726;28;20072;-80
2024/01/11 06:09:51;;;;;;;0.17;0.00;;;;;;;1.43;76.71;102143.13;5044936;28;20518;-81
2024/01/11 06:12:18;;;;;;;0.47;0.00;;;;;;;1.42;76.90;102151.66;5047618;28;20095;-82
2024/01/11 06:14:45;;;;;;;2.92;0.00;;;;;;;1.44;76.58;102150.03;5043404;28;20053;-82
2024/01/11 06:17:12;;;;;;;1.08;0.00;;;;;;;1.43;76.71;102154.31;5048980;28;20464;-82
2024/01/11 06:19:39;;;;;;;0.10;0.00;;;;;;;1.43;76.70;102158.59;5051533;28;20084;-83
2024/01/11 06:22:06;;;;;;;0.93;0.15;;;;;;;1.42;76.71;102162.91;5039249;28;20464;-82
2024/01/11 06:24:33;;;;;;;0.08;0.00;;;;;;;1.43;76.57;102159.47;5050457;28;20507;-82
2024/01/11 06:27:01;;;;;;;1.98;0.00;;;;;;;1.39;76.69;102172.19;5049738;28;20079;-83
2024/01/11 06:29:29;;;;;;;0.00;0.00;;;;;;;1.42;76.50;102188.69;5049465;28;20072;-82
2024/01/11 06:31:56;;;;;;;0.90;0.00;;;;;;;1.43;76.64;102187.84;5043582;28;20506;-82
2024/01/11 06:34:23;;;;;;;0.00;0.00;;;;;;;1.45;76.36;102199.13;5050169;28;20076;-82
2024/01/11 06:36:50;;;;;;;0.08;0.00;;;;;;;1.45;76.74;102185.34;5038264;28;20096;-82
2024/01/11 06:39:17;;;;;;;0.10;0.00;;;;;;;1.47;76.23;102201.72;5046567;28;20072;-82
2024/01/11 06:41:44;;;;;;;0.00;0.00;;;;;;;1.46;76.57;102202.56;5045332;28;20080;-83
2024/01/11 06:44:12;;;;;;;0.00;0.00;;;;;;;1.46;76.47;102208.59;5042545;28;20084;-76
2024/01/11 06:46:41;;;;;;;0.13;0.00;;;;;;;1.46;76.31;102211.19;5037816;28;20120;-75
2024/01/11 06:49:08;;;;;;;0.00;0.00;;;;;;;1.45;76.13;102213.72;5040345;28;20054;-75
2024/01/11 06:51:35;;;;;;;0.80;0.00;;;;;;;1.43;76.49;102210.19;5042174;28;20476;-75
2024/01/11 06:54:02;;;;;;;0.52;0.00;;;;;;;1.45;76.47;102217.16;5041906;28;20116;-75
2024/01/11 06:56:29;;;;;;;0.93;0.00;;;;;;;1.43;76.54;102208.47;5041769;28;20068;-75
2024/01/11 06:58:56;;;;;;;3.50;0.32;;;;;;;1.45;76.30;102224.91;5040169;28;20041;-75
2024/01/11 07:01:25;;;;;;;1.15;0.00;;;;;;;1.43;76.08;102221.38;5039087;28;20448;-76
2024/01/11 07:03:52;;;;;;;0.52;0.00;;;;;;;1.45;76.00;102230.06;5045407;28;20131;-75
2024/01/11 07:06:19;;;;;;;0.00;0.00;;;;;;;1.43;76.06;102231.69;5038474;28;20088;-76
2024/01/11 07:08:46;;;;;;;0.00;0.00;;;;;;;1.41;76.28;102235.03;5041462;28;20041;-76
2024/01/11 07:11:13;;;;;;;0.38;0.00;;;;;;;1.40;76.23;102234.16;5041455;28;20080;-76
2024/01/11 07:13:40;;;;;;;0.35;0.00;;;;;;;1.42;76.08;102242.84;5039280;28;20183;-76
2024/01/11 07:16:07;;;;;;;2.17;0.40;;;;;;;1.39;75.96;102255.63;5041250;28;20713;-75
2024/01/11 07:18:35;;;;;;;0.50;0.10;;;;;;;1.40;76.24;102262.53;5040908;28;20049;-75
2024/01/11 07:21:02;;;;;;;0.00;0.00;;;;;;;1.40;75.83;102269.38;5036992;28;20072;-75
2024/01/11 07:23:29;;;;;;;0.52;0.00;;;;;;;1.39;75.92;102276.25;5040307;28;20094;-75
2024/01/11 07:25:56;;;;;;;0.95;0.00;;;;;;;1.37;75.76;102277.88;5043181;28;20678;-76
2024/01/11 07:28:25;;;;;;;0.50;0.00;;;;;;;1.37;75.98;102285.63;5037534;28;20137;-75
2024/01/11 07:30:52;;;;;;;0.22;0.00;;;;;;;1.36;75.90;102291.59;5038468;28;20575;-76
2024/01/11 07:33:20;;;;;;;0.40;0.00;;;;;;;1.35;75.95;102289.81;5039540;28;20132;-75
2024/01/11 07:35:48;;;;;;;0.95;0.00;;;;;;;1.34;75.81;102302.69;5038190;28;20057;-75
2024/01/11 07:38:15;;;;;;;0.15;0.00;;;;;;;1.32;75.59;102299.16;5041830;28;20762;-75
2024/01/11 07:40:42;;;;;;;0.10;0.00;;;;;;;1.31;75.83;102302.56;5041458;28;20053;-75
2024/01/11 07:43:09;;;;;;;0.85;0.00;;;;;;;1.29;75.76;102305.06;5042615;28;20992;-75
2024/01/11 07:45:36;;;;;;;1.60;0.00;;;;;;;1.29;76.06;102310.22;5042085;28;20484;-75
2024/01/11 07:48:04;;;;;;;3.13;0.00;;;;;;;1.29;75.95;102324.81;5042888;28;20174;-74
2024/01/11 07:50:32;;;;;;;0.40;0.00;;;;;;;1.25;75.40;102334.13;5045803;28;20053;-74
2024/01/11 07:53:02;;;;;;;1.05;0.00;;;;;;;1.24;75.49;102343.53;5044688;28;20367;-74
2024/01/11 07:55:29;;;;;;;1.25;0.00;;;;;;;1.22;75.87;102345.19;5042755;28;20045;-71
2024/01/11 07:57:56;;;;;;;1.38;0.00;;;;;;;1.21;75.60;102339.97;5044673;28;20072;-71
2024/01/11 08:00:23;;;;;;;1.10;0.00;;;;;;;1.21;75.46;102342.53;5043323;28;20081;-71
2024/01/11 08:02:50;;;;;;;1.38;0.00;;;;;;;1.19;75.31;102357.06;5043383;28;20082;-71
2024/01/11 08:05:17;;;;;;;1.02;0.00;;;;;;;1.18;75.30;102358.75;5039481;28;20084;-75
2024/01/11 08:07:44;;;;;;;1.25;0.03;;;;;;;1.17;75.53;102369.03;5043556;28;20072;-74
2024/01/11 08:10:13;;;;;;;1.35;0.00;;;;;;;1.16;75.51;102374.97;5044765;28;20503;-75
2024/01/11 08:12:40;;;;;;;0.05;0.00;;;;;;;1.14;75.44;102372.34;5043158;28;20041;-74
2024/01/11 08:15:12;;;;;;;0.08;0.00;;;;;;;1.10;75.02;102374.72;5042504;28;20138;-74
2024/01/11 08:17:39;;;;;;;0.40;0.08;;;;;;;1.12;75.24;102383.41;5044990;28;20558;-75
2024/01/11 08:20:08;;;;;;;1.45;0.40;;;;;;;1.09;75.06;102381.59;5043786;28;20199;-74
2024/01/11 08:22:36;;;;;;;0.15;0.00;;;;;;;1.09;74.98;102391.91;5043997;28;20045;-74
2024/01/11 08:25:04;;;;;;;0.32;0.00;;;;;;;1.09;75.25;102396.19;5040921;28;20055;-74
2024/01/11 08:27:32;;;;;;;0.30;0.05;;;;;;;1.08;74.93;102402.13;5039438;28;20071;-74
2024/01/11 08:30:00;;;;;;;0.00;0.00;;;;;;;1.06;74.67;102402.09;5043642;28;20076;-74
2024/01/11 08:32:27;;;;;;;0.10;0.00;;;;;;;1.02;74.57;102413.97;5046672;28;20083;-75
2024/01/11 08:34:54;;;;;;;3.88;0.10;;;;;;;1.03;74.43;102422.56;5045112;28;20133;-74
2024/01/11 08:37:21;;;;;;;0.85;0.00;;;;;;;1.00;74.71;102430.19;5042717;28;20188;-74
2024/01/11 08:39:48;;;;;;;0.20;0.00;;;;;;;0.98;74.55;102437.81;5042716;28;20123;-74
2024/01/11 08:42:15;;;;;;;0.45;0.10;;;;;;;0.97;74.77;102440.34;5040809;28;20412;-75
2024/01/11 08:44:44;;;;;;;2.92;0.00;;;;;;;0.96;74.83;102449.78;5047134;28;20057;-74
2024/01/11 08:47:11;;;;;;;1.33;0.00;;;;;;;0.92;74.68;102444.41;5042612;28;20042;-74
2024/01/11 08:49:39;;;;;;;0.88;0.00;;;;;;;0.92;73.98;102463.34;5034378;28;20507;-74
2024/01/11 08:52:07;;;;;;;0.90;0.00;;;;;;;0.88;73.65;102474.34;5036318;28;20581;-73
2024/01/11 08:54:34;;;;;;;0.47;0.00;;;;;;;0.84;73.20;102469.84;5042104;28;20072;-74
2024/01/11 08:57:03;;;;;;;0.88;0.65;;;;;;;0.80;73.41;102478.25;5035034;28;20048;-74
2024/01/11 08:59:30;;;;;;;2.13;0.00;;;;;;;0.77;72.79;102483.28;5038550;28;20459;-74
2024/01/11 09:01:58;;;;;;;0.30;0.00;;;;;;;0.77;71.64;102484.16;5036044;28;20990;-74
2024/01/11 09:04:25;;;;;;;0.73;0.00;;;;;;;0.76;70.89;102489.22;5038711;28;20085;-71
2024/01/11 09:06:52;;;;;;;0.38;0.00;;;;;;;0.74;71.13;102493.44;5035804;28;20143;-71
2024/01/11 09:09:19;;;;;;;1.98;0.00;;;;;;;0.70;71.46;102492.41;5045266;28;20116;-71
2024/01/11 09:11:46;;;;;;;1.65;0.00;;;;;;;0.72;70.93;102493.38;5034791;28;21721;-71
2024/01/11 09:14:13;;;;;;;2.05;0.00;;;;;;;0.71;71.06;102498.47;5041148;28;20080;-74
2024/01/11 09:16:40;;;;;;;0.88;0.10;;;;;;;0.69;70.56;102505.25;5036772;28;20088;-74
2024/01/11 09:19:09;;;;;;;1.15;0.00;;;;;;;0.69;70.62;102500.97;5039298;28;20091;-73
2024/01/11 09:21:36;;;;;;;0.95;0.00;;;;;;;0.64;70.50;102502.44;5036966;28;20072;-73
2024/01/11 09:24:03;;;;;;;0.57;0.00;;;;;;;0.65;70.62;102501.66;5031849;28;20099;-74
2024/01/11 09:26:30;;;;;;;1.35;0.00;;;;;;;0.67;70.49;102506.84;5039160;28;20460;-74
2024/01/11 09:28:57;;;;;;;0.73;0.00;;;;;;;0.66;70.36;102505.09;5038160;28;20081;-73
2024/01/11 09:31:24;;;;;;;1.58;0.00;;;;;;;0.64;69.96;102501.56;5042349;28;20637;-73
2024/01/11 09:33:52;;;;;;;0.10;0.00;;;;;;;0.61;69.80;102502.31;5037071;28;20514;-74
2024/01/11 09:36:20;;;;;;;1.00;0.00;;;;;;;0.62;69.21;102519.50;5043480;28;20090;-73
2024/01/11 09:38:48;;;;;;;0.43;0.00;;;;;;;0.61;69.80;102519.47;5036156;28;20120;-74
2024/01/11 09:41:15;;;;;;;1.73;0.20;;;;;;;0.59;70.13;102519.38;5038600;28;20051;-74
2024/01/11 09:43:43;;;;;;;0.10;0.00;;;;;;;0.58;69.74;102515.03;5040356;28;20083;-73
2024/01/11 09:46:12;;;;;;;0.20;0.10;;;;;;;0.57;68.98;102513.28;5040271;28;20049;-73
2024/01/11 09:48:41;;;;;;;0.57;0.22;;;;;;;0.54;68.73;102519.19;5039856;28;20124;-74
2024/01/11 09:51:10;;;;;;;3.15;0.00;;;;;;;0.53;68.88;102517.38;5033301;28;20048;-74
2024/01/11 09:53:39;;;;;;;1.75;0.00;;;;;;;0.53;68.86;102530.28;5037005;28;20052;-75
2024/01/11 09:56:09;;;;;;;0.80;0.00;;;;;;;0.51;68.60;102531.91;5028872;28;20095;-73
2024/01/11 09:58:37;;;;;;;0.75;0.10;;;;;;;0.50;67.25;102534.41;5038067;28;20156;-75
2024/01/11 10:01:10;;;;;;;1.85;0.00;;;;;;;0.47;67.73;102531.69;5039018;28;20083;-74
2024/01/11 10:03:37;;;;;;;0.55;0.00;;;;;;;0.46;67.84;102538.53;5035146;28;20131;-74
2024/01/11 10:06:05;;;;;;;0.10;0.00;;;;;;;0.46;67.76;102543.69;5040451;28;20514;-73
2024/01/11 10:08:33;;;;;;;4.78;0.00;;;;;;;0.44;67.78;102544.41;5039052;28;20129;-73
2024/01/11 10:11:02;;;;;;;0.55;0.03;;;;;;;0.44;67.65;102549.56;5042837;28;20048;-73
2024/01/11 10:13:30;;;;;;;0.40;0.00;;;;;;;0.43;67.42;102550.41;5046866;28;20057;-71
2024/01/11 10:16:08;;;;;;;1.42;0.00;;;;;;;0.40;67.59;102558.84;5040628;28;20515;-71
2024/01/11 10:18:35;;;;;;;0.20;0.00;;;;;;;0.41;67.39;102563.19;5038928;28;20084;-71
2024/01/11 10:21:02;;;;;;;3.17;0.00;;;;;;;0.40;67.24;102574.31;5042341;28;20049;-71
2024/01/11 10:23:30;;;;;;;0.30;0.10;;;;;;;0.32;66.68;102562.75;5044568;28;20076;-74
2024/01/11 10:25:57;;;;;;;1.17;0.00;;;;;;;0.39;67.68;102571.63;5040555;28;20054;-73
2024/01/11 10:28:26;;;;;;;1.38;0.10;;;;;;;0.38;67.36;102581.06;5037081;28;20053;-74
2024/01/11 10:30:54;;;;;;;0.28;0.00;;;;;;;0.37;67.28;102574.16;5043344;28;20111;-73
2024/01/11 10:33:21;;;;;;;0.20;0.00;;;;;;;0.34;67.38;102576.59;5039279;28;20045;-74
2024/01/11 10:35:50;;;;;;;1.40;0.00;;;;;;;0.38;67.86;102582.75;5044544;28;20059;-73
2024/01/11 10:38:17;;;;;;;2.03;0.10;;;;;;;0.38;67.58;102600.78;5041651;28;20056;-74
2024/01/11 10:40:45;;;;;;;0.00;0.00;;;;;;;0.36;67.29;102600.69;5044052;28;20047;-73
2024/01/11 10:43:13;;;;;;;0.73;0.00;;;;;;;0.35;66.68;102604.09;5039654;28;20065;-73
2024/01/11 10:45:41;;;;;;;0.00;0.00;;;;;;;0.34;66.60;102610.94;5039291;28;20560;-74
2024/01/11 10:48:14;;;;;;;0.98;0.00;;;;;;;0.33;66.84;102621.16;5037416;28;20668;-74
2024/01/11 10:50:44;;;;;;;1.25;0.00;;;;;;;0.33;66.60;102618.56;5038983;28;20049;-73
2024/01/11 10:53:24;;;;;;;1.35;0.00;;;;;;;0.28;66.52;102618.38;5040002;28;20564;-73
2024/01/11 10:55:52;;;;;;;1.17;0.00;;;;;;;0.32;67.06;102642.56;5039293;28;20059;-74
2024/01/11 10:58:20;;;;;;;0.93;0.00;;;;;;;0.30;67.03;102644.16;5038303;28;20094;-73
2024/01/11 11:00:50;;;;;;;0.10;0.00;;;;;;;0.28;66.97;102636.38;5038399;28;20460;-74
2024/01/11 11:03:20;;;;;;;1.25;0.00;;;;;;;0.27;66.96;102636.28;5042675;28;20072;-73
2024/01/11 11:05:51;;;;;;;0.82;0.00;;;;;;;0.29;66.81;102647.56;5041404;28;20486;-74
2024/01/11 11:08:19;;;;;;;0.47;0.00;;;;;;;0.27;66.79;102654.31;5042576;28;20049;-75
2024/01/11 11:10:47;;;;;;;1.63;0.00;;;;;;;0.28;66.32;102661.22;5038887;28;20044;-75
2024/01/11 11:13:16;;;;;;;0.00;0.00;;;;;;;0.26;66.10;102662.84;5040815;28;20041;-73
2024/01/11 11:15:46;;;;;;;0.43;0.20;;;;;;;0.24;65.60;102674.75;5041449;28;20048;-72
2024/01/11 11:18:15;;;;;;;0.10;0.00;;;;;;;0.23;65.40;102673.88;5040040;28;20053;-74
2024/01/11 11:20:43;;;;;;;0.10;0.00;;;;;;;0.22;65.59;102669.53;5036593;28;20512;-73
2024/01/11 11:23:12;;;;;;;1.75;0.00;;;;;;;0.07;66.06;102656.78;5040067;28;20056;-75
2024/01/11 11:25:40;;;;;;;0.13;0.00;;;;;;;0.21;65.52;102682.34;5040238;28;20103;-71
2024/01/11 11:28:08;;;;;;;0.65;0.00;;;;;;;0.20;65.35;102686.59;5040749;28;20081;-71
2024/01/11 11:30:39;;;;;;;1.00;0.00;;;;;;;0.20;65.89;102685.72;5041463;28;20146;-70
2024/01/11 11:33:10;;;;;;;1.05;0.00;;;;;;;0.15;65.81;102685.47;5038924;28;20707;-73
2024/01/11 11:35:39;;;;;;;0.15;0.00;;;;;;;0.16;65.65;102683.78;5041469;28;20053;-73